sensor_id;sensor_type;location;lat;lon;timestamp;P1;durP1;ratioP1;P2;durP2;ratioP2
7193;SDS011;3638;48.820;9.244;2022-11-15T00:00:54;7.77;;;6.30;;
7193;SDS011;3638;48.820;9.244;2022-11-15T00:03:22;6.97;;;6.20;;
7193;SDS011;3638;48.820;9.244;2022-11-15T00:05:53;6.67;;;5.97;;
7193;SDS011;3638;48.820;9.244;2022-11-15T00:08:19;8.07;;;6.10;;
7193;SDS011;3638;48.820;9.244;2022-11-15T00:10:53;9.33;;;6.63;;
7193;SDS011;3638;48.820;9.244;2022-11-15T00:13:21;9.63;;;6.60;;
7193;SDS011;3638;48.820;9.244;2022-11-15T00:15:48;8.67;;;6.80;;
7193;SDS011;3638;48.820;9.244;2022-11-15T00:18:15;8.10;;;6.40;;
7193;SDS011;3638;48.820;9.244;2022-11-15T00:20:43;8.30;;;6.07;;
7193;SDS011;3638;48.820;9.244;2022-11-15T00:23:11;10.40;;;6.47;;
7193;SDS011;3638;48.820;9.244;2022-11-15T00:25:38;6.90;;;5.80;;
7193;SDS011;3638;48.820;9.244;2022-11-15T00:28:05;7.33;;;5.73;;
7193;SDS011;3638;48.820;9.244;2022-11-15T00:30:32;8.23;;;5.70;;
7193;SDS011;3638;48.820;9.244;2022-11-15T00:33:01;5.60;;;5.00;;
7193;SDS011;3638;48.820;9.244;2022-11-15T00:35:30;6.40;;;5.40;;
7193;SDS011;3638;48.820;9.244;2022-11-15T00:37:58;6.67;;;5.23;;
7193;SDS011;3638;48.820;9.244;2022-11-15T00:40:26;7.87;;;5.23;;
7193;SDS011;3638;48.820;9.244;2022-11-15T00:42:53;6.80;;;5.77;;
7193;SDS011;3638;48.820;9.244;2022-11-15T00:45:20;6.93;;;5.37;;
7193;SDS011;3638;48.820;9.244;2022-11-15T00:47:47;7.23;;;5.37;;
7193;SDS011;3638;48.820;9.244;2022-11-15T00:50:14;7.87;;;5.00;;
7193;SDS011;3638;48.820;9.244;2022-11-15T00:52:42;6.07;;;5.10;;
7193;SDS011;3638;48.820;9.244;2022-11-15T00:55:12;5.43;;;4.93;;
7193;SDS011;3638;48.820;9.244;2022-11-15T00:57:42;7.13;;;5.27;;
7193;SDS011;3638;48.820;9.244;2022-11-15T01:00:09;6.40;;;4.87;;
7193;SDS011;3638;48.820;9.244;2022-11-15T01:02:38;8.43;;;5.63;;
7193;SDS011;3638;48.820;9.244;2022-11-15T01:05:05;6.10;;;5.20;;
7193;SDS011;3638;48.820;9.244;2022-11-15T01:07:33;7.80;;;5.03;;
7193;SDS011;3638;48.820;9.244;2022-11-15T01:10:00;8.83;;;5.50;;
7193;SDS011;3638;48.820;9.244;2022-11-15T01:12:27;6.63;;;5.13;;
7193;SDS011;3638;48.820;9.244;2022-11-15T01:14:55;6.20;;;5.60;;
7193;SDS011;3638;48.820;9.244;2022-11-15T01:17:22;8.23;;;5.53;;
7193;SDS011;3638;48.820;9.244;2022-11-15T01:19:50;8.00;;;5.90;;
7193;SDS011;3638;48.820;9.244;2022-11-15T01:22:17;6.60;;;5.60;;
7193;SDS011;3638;48.820;9.244;2022-11-15T01:24:44;7.60;;;5.90;;
7193;SDS011;3638;48.820;9.244;2022-11-15T01:27:10;7.63;;;5.17;;
7193;SDS011;3638;48.820;9.244;2022-11-15T01:29:37;8.80;;;6.43;;
7193;SDS011;3638;48.820;9.244;2022-11-15T01:32:06;6.80;;;5.90;;
7193;SDS011;3638;48.820;9.244;2022-11-15T01:34:32;9.63;;;6.43;;
7193;SDS011;3638;48.820;9.244;2022-11-15T01:36:59;7.30;;;5.83;;
7193;SDS011;3638;48.820;9.244;2022-11-15T01:39:26;8.47;;;6.53;;
7193;SDS011;3638;48.820;9.244;2022-11-15T01:41:53;8.87;;;6.40;;
7193;SDS011;3638;48.820;9.244;2022-11-15T01:47:10;8.83;;;6.77;;
7193;SDS011;3638;48.820;9.244;2022-11-15T01:49:49;9.03;;;6.43;;
7193;SDS011;3638;48.820;9.244;2022-11-15T01:52:22;7.23;;;6.17;;
7193;SDS011;3638;48.820;9.244;2022-11-15T01:54:53;11.67;;;6.80;;
7193;SDS011;3638;48.820;9.244;2022-11-15T01:57:28;8.97;;;6.60;;
7193;SDS011;3638;48.820;9.244;2022-11-15T01:59:56;8.40;;;6.43;;
7193;SDS011;3638;48.820;9.244;2022-11-15T02:02:27;8.37;;;6.67;;
7193;SDS011;3638;48.820;9.244;2022-11-15T02:04:54;9.90;;;6.63;;
7193;SDS011;3638;48.820;9.244;2022-11-15T02:07:21;10.50;;;7.00;;
7193;SDS011;3638;48.820;9.244;2022-11-15T02:09:48;8.47;;;6.47;;
7193;SDS011;3638;48.820;9.244;2022-11-15T02:12:17;9.53;;;6.80;;
7193;SDS011;3638;48.820;9.244;2022-11-15T02:14:46;9.10;;;7.03;;
7193;SDS011;3638;48.820;9.244;2022-11-15T02:17:32;9.77;;;6.50;;
7193;SDS011;3638;48.820;9.244;2022-11-15T02:20:26;8.50;;;6.80;;
7193;SDS011;3638;48.820;9.244;2022-11-15T02:23:14;8.07;;;6.13;;
7193;SDS011;3638;48.820;9.244;2022-11-15T02:26:08;9.13;;;6.63;;
7193;SDS011;3638;48.820;9.244;2022-11-15T02:29:01;8.63;;;6.00;;
7193;SDS011;3638;48.820;9.244;2022-11-15T02:31:34;6.60;;;5.90;;
7193;SDS011;3638;48.820;9.244;2022-11-15T02:34:08;7.30;;;6.10;;
7193;SDS011;3638;48.820;9.244;2022-11-15T02:36:48;8.13;;;6.07;;
7193;SDS011;3638;48.820;9.244;2022-11-15T02:39:24;8.43;;;6.07;;
7193;SDS011;3638;48.820;9.244;2022-11-15T02:42:00;9.27;;;5.70;;
7193;SDS011;3638;48.820;9.244;2022-11-15T02:45:07;6.13;;;5.10;;
7193;SDS011;3638;48.820;9.244;2022-11-15T02:47:43;8.17;;;5.87;;
7193;SDS011;3638;48.820;9.244;2022-11-15T02:50:12;7.30;;;5.70;;
7193;SDS011;3638;48.820;9.244;2022-11-15T02:52:44;8.03;;;5.53;;
7193;SDS011;3638;48.820;9.244;2022-11-15T02:58:04;6.23;;;5.60;;
7193;SDS011;3638;48.820;9.244;2022-11-15T03:00:48;8.37;;;6.47;;
7193;SDS011;3638;48.820;9.244;2022-11-15T03:03:36;6.40;;;5.80;;
7193;SDS011;3638;48.820;9.244;2022-11-15T03:06:19;6.60;;;5.90;;
7193;SDS011;3638;48.820;9.244;2022-11-15T03:08:55;6.80;;;5.80;;
7193;SDS011;3638;48.820;9.244;2022-11-15T03:11:30;6.20;;;5.60;;
7193;SDS011;3638;48.820;9.244;2022-11-15T03:14:02;6.47;;;5.30;;
7193;SDS011;3638;48.820;9.244;2022-11-15T03:16:40;5.87;;;5.27;;
7193;SDS011;3638;48.820;9.244;2022-11-15T03:19:16;6.27;;;5.67;;
7193;SDS011;3638;48.820;9.244;2022-11-15T03:21:49;8.50;;;5.80;;
7193;SDS011;3638;48.820;9.244;2022-11-15T03:24:18;6.20;;;5.60;;
7193;SDS011;3638;48.820;9.244;2022-11-15T03:26:47;5.77;;;4.83;;
7193;SDS011;3638;48.820;9.244;2022-11-15T03:29:16;7.60;;;5.37;;
7193;SDS011;3638;48.820;9.244;2022-11-15T03:31:49;7.23;;;5.80;;
7193;SDS011;3638;48.820;9.244;2022-11-15T03:34:25;6.43;;;5.57;;
7193;SDS011;3638;48.820;9.244;2022-11-15T03:36:56;7.43;;;5.80;;
7193;SDS011;3638;48.820;9.244;2022-11-15T03:39:23;7.27;;;5.73;;
7193;SDS011;3638;48.820;9.244;2022-11-15T03:41:53;6.20;;;5.43;;
7193;SDS011;3638;48.820;9.244;2022-11-15T03:44:35;7.57;;;5.87;;
7193;SDS011;3638;48.820;9.244;2022-11-15T03:47:09;7.90;;;6.27;;
7193;SDS011;3638;48.820;9.244;2022-11-15T03:49:42;8.37;;;6.63;;
7193;SDS011;3638;48.820;9.244;2022-11-15T03:52:12;8.77;;;7.27;;
7193;SDS011;3638;48.820;9.244;2022-11-15T03:54:48;9.73;;;7.47;;
7193;SDS011;3638;48.820;9.244;2022-11-15T03:57:20;11.20;;;7.53;;
7193;SDS011;3638;48.820;9.244;2022-11-15T03:59:47;8.50;;;7.20;;
7193;SDS011;3638;48.820;9.244;2022-11-15T04:02:14;11.23;;;7.20;;
7193;SDS011;3638;48.820;9.244;2022-11-15T04:04:43;9.33;;;7.70;;
7193;SDS011;3638;48.820;9.244;2022-11-15T04:07:10;10.47;;;7.87;;
7193;SDS011;3638;48.820;9.244;2022-11-15T04:09:37;8.97;;;8.07;;
7193;SDS011;3638;48.820;9.244;2022-11-15T04:12:24;9.40;;;7.60;;
7193;SDS011;3638;48.820;9.244;2022-11-15T04:14:56;8.37;;;7.30;;
7193;SDS011;3638;48.820;9.244;2022-11-15T04:17:34;12.50;;;7.87;;
7193;SDS011;3638;48.820;9.244;2022-11-15T04:20:05;9.27;;;8.10;;
7193;SDS011;3638;48.820;9.244;2022-11-15T04:22:53;9.73;;;7.57;;
7193;SDS011;3638;48.820;9.244;2022-11-15T04:25:38;11.13;;;8.00;;
7193;SDS011;3638;48.820;9.244;2022-11-15T04:28:05;9.30;;;7.77;;
7193;SDS011;3638;48.820;9.244;2022-11-15T04:30:32;9.90;;;7.70;;
7193;SDS011;3638;48.820;9.244;2022-11-15T04:32:59;10.83;;;8.00;;
7193;SDS011;3638;48.820;9.244;2022-11-15T04:35:28;9.33;;;8.13;;
7193;SDS011;3638;48.820;9.244;2022-11-15T04:37:55;10.70;;;7.77;;
7193;SDS011;3638;48.820;9.244;2022-11-15T04:40:22;11.53;;;8.80;;
7193;SDS011;3638;48.820;9.244;2022-11-15T04:42:49;10.63;;;8.30;;
7193;SDS011;3638;48.820;9.244;2022-11-15T04:45:16;12.87;;;9.20;;
7193;SDS011;3638;48.820;9.244;2022-11-15T04:47:44;13.03;;;8.63;;
7193;SDS011;3638;48.820;9.244;2022-11-15T04:50:11;12.73;;;9.80;;
7193;SDS011;3638;48.820;9.244;2022-11-15T04:52:41;13.67;;;9.53;;
7193;SDS011;3638;48.820;9.244;2022-11-15T04:55:09;15.00;;;10.17;;
7193;SDS011;3638;48.820;9.244;2022-11-15T04:57:37;13.00;;;9.60;;
7193;SDS011;3638;48.820;9.244;2022-11-15T05:00:05;10.90;;;8.50;;
7193;SDS011;3638;48.820;9.244;2022-11-15T05:02:34;13.27;;;9.77;;
7193;SDS011;3638;48.820;9.244;2022-11-15T05:05:19;12.00;;;9.33;;
7193;SDS011;3638;48.820;9.244;2022-11-15T05:07:47;11.20;;;8.73;;
7193;SDS011;3638;48.820;9.244;2022-11-15T05:10:14;11.23;;;8.63;;
7193;SDS011;3638;48.820;9.244;2022-11-15T05:12:41;9.97;;;8.30;;
7193;SDS011;3638;48.820;9.244;2022-11-15T05:15:08;10.57;;;8.13;;
7193;SDS011;3638;48.820;9.244;2022-11-15T05:17:36;8.30;;;7.40;;
7193;SDS011;3638;48.820;9.244;2022-11-15T05:20:03;8.97;;;7.63;;
7193;SDS011;3638;48.820;9.244;2022-11-15T05:22:31;8.10;;;7.30;;
7193;SDS011;3638;48.820;9.244;2022-11-15T05:24:59;9.83;;;7.57;;
7193;SDS011;3638;48.820;9.244;2022-11-15T05:27:26;12.10;;;7.83;;
7193;SDS011;3638;48.820;9.244;2022-11-15T05:29:53;9.57;;;7.30;;
7193;SDS011;3638;48.820;9.244;2022-11-15T05:32:19;9.03;;;7.67;;
7193;SDS011;3638;48.820;9.244;2022-11-15T05:34:47;10.80;;;7.10;;
7193;SDS011;3638;48.820;9.244;2022-11-15T05:37:14;8.53;;;7.50;;
7193;SDS011;3638;48.820;9.244;2022-11-15T05:39:41;10.00;;;8.03;;
7193;SDS011;3638;48.820;9.244;2022-11-15T05:42:10;11.30;;;7.70;;
7193;SDS011;3638;48.820;9.244;2022-11-15T05:44:39;10.17;;;8.13;;
7193;SDS011;3638;48.820;9.244;2022-11-15T05:47:11;10.90;;;8.70;;
7193;SDS011;3638;48.820;9.244;2022-11-15T05:49:43;9.30;;;8.33;;
7193;SDS011;3638;48.820;9.244;2022-11-15T05:52:12;10.60;;;8.77;;
7193;SDS011;3638;48.820;9.244;2022-11-15T05:54:44;12.07;;;8.77;;
7193;SDS011;3638;48.820;9.244;2022-11-15T05:57:12;12.10;;;8.70;;
7193;SDS011;3638;48.820;9.244;2022-11-15T05:59:39;11.17;;;8.90;;
7193;SDS011;3638;48.820;9.244;2022-11-15T06:02:08;11.60;;;8.30;;
7193;SDS011;3638;48.820;9.244;2022-11-15T06:04:35;11.83;;;8.43;;
7193;SDS011;3638;48.820;9.244;2022-11-15T06:07:02;11.27;;;7.97;;
7193;SDS011;3638;48.820;9.244;2022-11-15T06:09:29;11.93;;;7.60;;
7193;SDS011;3638;48.820;9.244;2022-11-15T06:11:56;8.67;;;7.60;;
7193;SDS011;3638;48.820;9.244;2022-11-15T06:14:24;12.07;;;8.50;;
7193;SDS011;3638;48.820;9.244;2022-11-15T06:16:51;10.83;;;8.33;;
7193;SDS011;3638;48.820;9.244;2022-11-15T06:19:18;10.93;;;8.60;;
7193;SDS011;3638;48.820;9.244;2022-11-15T06:21:45;9.80;;;8.20;;
7193;SDS011;3638;48.820;9.244;2022-11-15T06:24:12;11.00;;;8.70;;
7193;SDS011;3638;48.820;9.244;2022-11-15T06:26:39;11.33;;;8.50;;
7193;SDS011;3638;48.820;9.244;2022-11-15T06:29:06;10.93;;;8.13;;
7193;SDS011;3638;48.820;9.244;2022-11-15T06:31:34;10.17;;;8.10;;
7193;SDS011;3638;48.820;9.244;2022-11-15T06:34:01;11.57;;;8.43;;
7193;SDS011;3638;48.820;9.244;2022-11-15T06:36:28;8.90;;;7.80;;
7193;SDS011;3638;48.820;9.244;2022-11-15T06:38:56;9.20;;;7.47;;
7193;SDS011;3638;48.820;9.244;2022-11-15T06:41:23;7.63;;;6.83;;
7193;SDS011;3638;48.820;9.244;2022-11-15T06:43:50;7.83;;;6.90;;
7193;SDS011;3638;48.820;9.244;2022-11-15T06:46:16;8.20;;;6.80;;
7193;SDS011;3638;48.820;9.244;2022-11-15T06:48:45;8.27;;;6.70;;
7193;SDS011;3638;48.820;9.244;2022-11-15T06:51:12;6.70;;;6.00;;
7193;SDS011;3638;48.820;9.244;2022-11-15T06:53:39;8.30;;;6.70;;
7193;SDS011;3638;48.820;9.244;2022-11-15T06:56:06;9.83;;;6.60;;
7193;SDS011;3638;48.820;9.244;2022-11-15T06:58:34;7.20;;;6.47;;
7193;SDS011;3638;48.820;9.244;2022-11-15T07:01:02;7.57;;;6.13;;
7193;SDS011;3638;48.820;9.244;2022-11-15T07:03:31;9.57;;;6.90;;
7193;SDS011;3638;48.820;9.244;2022-11-15T07:06:01;8.07;;;6.50;;
7193;SDS011;3638;48.820;9.244;2022-11-15T07:08:29;7.83;;;6.90;;
7193;SDS011;3638;48.820;9.244;2022-11-15T07:10:57;7.83;;;6.50;;
7193;SDS011;3638;48.820;9.244;2022-11-15T07:13:26;8.90;;;6.00;;
7193;SDS011;3638;48.820;9.244;2022-11-15T07:15:57;7.27;;;5.97;;
7193;SDS011;3638;48.820;9.244;2022-11-15T07:18:28;7.80;;;6.30;;
7193;SDS011;3638;48.820;9.244;2022-11-15T07:20:54;6.47;;;5.83;;
7193;SDS011;3638;48.820;9.244;2022-11-15T07:23:23;7.73;;;6.93;;
7193;SDS011;3638;48.820;9.244;2022-11-15T07:25:50;7.93;;;6.20;;
7193;SDS011;3638;48.820;9.244;2022-11-15T07:28:16;9.30;;;6.33;;
7193;SDS011;3638;48.820;9.244;2022-11-15T07:30:43;6.47;;;5.63;;
7193;SDS011;3638;48.820;9.244;2022-11-15T07:33:10;6.70;;;6.00;;
7193;SDS011;3638;48.820;9.244;2022-11-15T07:35:37;7.93;;;6.10;;
7193;SDS011;3638;48.820;9.244;2022-11-15T07:38:04;7.33;;;6.07;;
7193;SDS011;3638;48.820;9.244;2022-11-15T07:40:32;6.37;;;5.70;;
7193;SDS011;3638;48.820;9.244;2022-11-15T07:42:59;6.20;;;5.33;;
7193;SDS011;3638;48.820;9.244;2022-11-15T07:45:26;7.47;;;6.13;;
7193;SDS011;3638;48.820;9.244;2022-11-15T07:47:55;6.47;;;5.67;;
7193;SDS011;3638;48.820;9.244;2022-11-15T07:50:22;6.70;;;5.13;;
7193;SDS011;3638;48.820;9.244;2022-11-15T07:52:53;9.17;;;5.13;;
7193;SDS011;3638;48.820;9.244;2022-11-15T07:55:21;6.30;;;5.67;;
7193;SDS011;3638;48.820;9.244;2022-11-15T07:57:49;7.00;;;5.00;;
7193;SDS011;3638;48.820;9.244;2022-11-15T08:00:17;7.77;;;5.23;;
7193;SDS011;3638;48.820;9.244;2022-11-15T08:02:45;5.30;;;4.80;;
7193;SDS011;3638;48.820;9.244;2022-11-15T08:05:12;6.53;;;4.77;;
7193;SDS011;3638;48.820;9.244;2022-11-15T08:07:39;5.33;;;4.83;;
7193;SDS011;3638;48.820;9.244;2022-11-15T08:10:06;7.83;;;5.30;;
7193;SDS011;3638;48.820;9.244;2022-11-15T08:12:34;6.57;;;5.00;;
7193;SDS011;3638;48.820;9.244;2022-11-15T08:15:02;5.57;;;4.60;;
7193;SDS011;3638;48.820;9.244;2022-11-15T08:17:30;4.77;;;4.30;;
7193;SDS011;3638;48.820;9.244;2022-11-15T08:19:59;6.13;;;4.70;;
7193;SDS011;3638;48.820;9.244;2022-11-15T08:22:26;6.40;;;5.07;;
7193;SDS011;3638;48.820;9.244;2022-11-15T08:24:53;7.47;;;5.13;;
7193;SDS011;3638;48.820;9.244;2022-11-15T08:27:19;6.27;;;5.07;;
7193;SDS011;3638;48.820;9.244;2022-11-15T08:29:48;6.50;;;4.83;;
7193;SDS011;3638;48.820;9.244;2022-11-15T08:32:17;7.47;;;5.47;;
7193;SDS011;3638;48.820;9.244;2022-11-15T08:34:43;6.87;;;5.63;;
7193;SDS011;3638;48.820;9.244;2022-11-15T08:37:10;5.87;;;4.87;;
7193;SDS011;3638;48.820;9.244;2022-11-15T08:39:37;7.43;;;5.30;;
7193;SDS011;3638;48.820;9.244;2022-11-15T08:42:04;5.97;;;5.07;;
7193;SDS011;3638;48.820;9.244;2022-11-15T08:44:31;5.93;;;4.90;;
7193;SDS011;3638;48.820;9.244;2022-11-15T08:46:58;7.17;;;5.20;;
7193;SDS011;3638;48.820;9.244;2022-11-15T08:49:26;6.97;;;5.33;;
7193;SDS011;3638;48.820;9.244;2022-11-15T08:51:53;7.67;;;5.10;;
7193;SDS011;3638;48.820;9.244;2022-11-15T08:54:20;8.00;;;5.70;;
7193;SDS011;3638;48.820;9.244;2022-11-15T08:56:47;5.80;;;5.20;;
7193;SDS011;3638;48.820;9.244;2022-11-15T08:59:14;6.83;;;5.50;;
7193;SDS011;3638;48.820;9.244;2022-11-15T09:01:40;7.93;;;5.47;;
7193;SDS011;3638;48.820;9.244;2022-11-15T09:04:07;6.83;;;5.20;;
7193;SDS011;3638;48.820;9.244;2022-11-15T09:06:36;6.27;;;4.93;;
7193;SDS011;3638;48.820;9.244;2022-11-15T09:09:02;6.07;;;4.93;;
7193;SDS011;3638;48.820;9.244;2022-11-15T09:11:29;5.43;;;4.60;;
7193;SDS011;3638;48.820;9.244;2022-11-15T09:13:56;7.43;;;4.70;;
7193;SDS011;3638;48.820;9.244;2022-11-15T09:16:23;5.63;;;4.70;;
7193;SDS011;3638;48.820;9.244;2022-11-15T09:18:50;6.60;;;4.67;;
7193;SDS011;3638;48.820;9.244;2022-11-15T09:21:18;4.80;;;4.07;;
7193;SDS011;3638;48.820;9.244;2022-11-15T09:23:46;5.47;;;4.53;;
7193;SDS011;3638;48.820;9.244;2022-11-15T09:26:16;6.13;;;4.23;;
7193;SDS011;3638;48.820;9.244;2022-11-15T09:28:44;6.80;;;4.07;;
7193;SDS011;3638;48.820;9.244;2022-11-15T09:31:10;6.43;;;4.60;;
7193;SDS011;3638;48.820;9.244;2022-11-15T09:33:37;6.53;;;4.70;;
7193;SDS011;3638;48.820;9.244;2022-11-15T09:36:05;9.03;;;5.07;;
7193;SDS011;3638;48.820;9.244;2022-11-15T09:38:35;10.30;;;6.30;;
7193;SDS011;3638;48.820;9.244;2022-11-15T09:41:21;14.90;;;9.67;;
7193;SDS011;3638;48.820;9.244;2022-11-15T09:44:19;11.60;;;6.77;;
7193;SDS011;3638;48.820;9.244;2022-11-15T09:47:03;7.47;;;4.43;;
7193;SDS011;3638;48.820;9.244;2022-11-15T09:49:50;4.60;;;4.03;;
7193;SDS011;3638;48.820;9.244;2022-11-15T09:52:18;5.00;;;3.60;;
7193;SDS011;3638;48.820;9.244;2022-11-15T09:54:46;5.90;;;4.00;;
7193;SDS011;3638;48.820;9.244;2022-11-15T09:57:18;5.00;;;3.53;;
7193;SDS011;3638;48.820;9.244;2022-11-15T09:59:51;6.83;;;3.70;;
7193;SDS011;3638;48.820;9.244;2022-11-15T10:02:33;4.13;;;3.33;;
7193;SDS011;3638;48.820;9.244;2022-11-15T10:05:16;4.90;;;3.20;;
7193;SDS011;3638;48.820;9.244;2022-11-15T10:07:50;6.67;;;4.13;;
7193;SDS011;3638;48.820;9.244;2022-11-15T10:10:29;4.57;;;4.00;;
7193;SDS011;3638;48.820;9.244;2022-11-15T10:13:04;7.23;;;4.73;;
7193;SDS011;3638;48.820;9.244;2022-11-15T10:15:39;5.60;;;4.20;;
7193;SDS011;3638;48.820;9.244;2022-11-15T10:18:14;7.80;;;5.10;;
7193;SDS011;3638;48.820;9.244;2022-11-15T10:20:46;5.33;;;4.10;;
7193;SDS011;3638;48.820;9.244;2022-11-15T10:23:16;5.37;;;3.47;;
7193;SDS011;3638;48.820;9.244;2022-11-15T10:25:45;5.40;;;3.87;;
7193;SDS011;3638;48.820;9.244;2022-11-15T10:28:15;5.27;;;4.00;;
7193;SDS011;3638;48.820;9.244;2022-11-15T10:30:46;7.73;;;4.10;;
7193;SDS011;3638;48.820;9.244;2022-11-15T10:33:18;6.07;;;3.90;;
7193;SDS011;3638;48.820;9.244;2022-11-15T10:38:52;6.07;;;4.00;;
7193;SDS011;3638;48.820;9.244;2022-11-15T10:41:27;6.50;;;3.77;;
7193;SDS011;3638;48.820;9.244;2022-11-15T10:44:17;5.00;;;3.20;;
7193;SDS011;3638;48.820;9.244;2022-11-15T10:49:57;5.33;;;3.70;;
7193;SDS011;3638;48.820;9.244;2022-11-15T10:52:28;8.17;;;4.10;;
7193;SDS011;3638;48.820;9.244;2022-11-15T10:54:59;7.63;;;4.20;;
7193;SDS011;3638;48.820;9.244;2022-11-15T10:57:32;6.72;;;3.65;;
7193;SDS011;3638;48.820;9.244;2022-11-15T11:00:05;6.07;;;4.10;;
7193;SDS011;3638;48.820;9.244;2022-11-15T11:02:56;8.65;;;5.20;;
7193;SDS011;3638;48.820;9.244;2022-11-15T11:05:26;8.25;;;4.78;;
7193;SDS011;3638;48.820;9.244;2022-11-15T11:07:57;5.45;;;4.00;;
7193;SDS011;3638;48.820;9.244;2022-11-15T11:10:26;6.95;;;4.07;;
7193;SDS011;3638;48.820;9.244;2022-11-15T11:12:54;5.03;;;3.50;;
7193;SDS011;3638;48.820;9.244;2022-11-15T11:15:22;4.85;;;2.58;;
7193;SDS011;3638;48.820;9.244;2022-11-15T11:17:57;6.25;;;3.10;;
7193;SDS011;3638;48.820;9.244;2022-11-15T11:20:36;4.43;;;3.17;;
7193;SDS011;3638;48.820;9.244;2022-11-15T11:23:14;3.90;;;2.85;;
7193;SDS011;3638;48.820;9.244;2022-11-15T11:26:02;4.43;;;3.43;;
7193;SDS011;3638;48.820;9.244;2022-11-15T11:28:47;5.20;;;3.63;;
7193;SDS011;3638;48.820;9.244;2022-11-15T11:31:25;5.40;;;3.90;;
7193;SDS011;3638;48.820;9.244;2022-11-15T11:34:04;5.47;;;4.37;;
7193;SDS011;3638;48.820;9.244;2022-11-15T11:36:44;5.90;;;4.00;;
7193;SDS011;3638;48.820;9.244;2022-11-15T11:39:21;5.30;;;3.38;;
7193;SDS011;3638;48.820;9.244;2022-11-15T11:41:56;4.15;;;3.17;;
7193;SDS011;3638;48.820;9.244;2022-11-15T11:44:33;5.75;;;3.42;;
7193;SDS011;3638;48.820;9.244;2022-11-15T11:47:10;5.22;;;3.05;;
7193;SDS011;3638;48.820;9.244;2022-11-15T11:49:45;5.30;;;3.38;;
7193;SDS011;3638;48.820;9.244;2022-11-15T11:52:17;3.97;;;2.80;;
7193;SDS011;3638;48.820;9.244;2022-11-15T11:54:54;6.80;;;3.23;;
7193;SDS011;3638;48.820;9.244;2022-11-15T11:57:38;4.55;;;3.13;;
7193;SDS011;3638;48.820;9.244;2022-11-15T12:00:15;4.00;;;3.15;;
7193;SDS011;3638;48.820;9.244;2022-11-15T12:02:49;4.90;;;2.95;;
7193;SDS011;3638;48.820;9.244;2022-11-15T12:05:30;5.13;;;3.30;;
7193;SDS011;3638;48.820;9.244;2022-11-15T12:08:03;5.65;;;3.38;;
7193;SDS011;3638;48.820;9.244;2022-11-15T12:10:48;3.72;;;2.70;;
7193;SDS011;3638;48.820;9.244;2022-11-15T12:13:26;4.85;;;3.03;;
7193;SDS011;3638;48.820;9.244;2022-11-15T12:15:59;6.10;;;3.38;;
7193;SDS011;3638;48.820;9.244;2022-11-15T12:18:33;5.93;;;3.28;;
7193;SDS011;3638;48.820;9.244;2022-11-15T12:21:01;3.65;;;2.80;;
7193;SDS011;3638;48.820;9.244;2022-11-15T12:23:37;3.95;;;2.85;;
7193;SDS011;3638;48.820;9.244;2022-11-15T12:26:08;3.10;;;2.72;;
7193;SDS011;3638;48.820;9.244;2022-11-15T12:28:43;4.28;;;2.70;;
7193;SDS011;3638;48.820;9.244;2022-11-15T12:31:18;5.53;;;2.88;;
7193;SDS011;3638;48.820;9.244;2022-11-15T12:33:54;3.90;;;3.03;;
7193;SDS011;3638;48.820;9.244;2022-11-15T12:39:11;3.70;;;2.80;;
7193;SDS011;3638;48.820;9.244;2022-11-15T12:41:39;3.85;;;2.90;;
7193;SDS011;3638;48.820;9.244;2022-11-15T12:44:10;3.78;;;3.08;;
7193;SDS011;3638;48.820;9.244;2022-11-15T12:52:17;4.32;;;3.00;;
7193;SDS011;3638;48.820;9.244;2022-11-15T12:54:54;4.75;;;2.90;;
7193;SDS011;3638;48.820;9.244;2022-11-15T12:58:24;4.90;;;2.80;;
7193;SDS011;3638;48.820;9.244;2022-11-15T13:00:54;6.15;;;3.00;;
7193;SDS011;3638;48.820;9.244;2022-11-15T13:03:25;3.35;;;2.90;;
7193;SDS011;3638;48.820;9.244;2022-11-15T13:06:33;4.28;;;3.38;;
7193;SDS011;3638;48.820;9.244;2022-11-15T13:18:25;4.40;;;2.70;;
7193;SDS011;3638;48.820;9.244;2022-11-15T13:21:00;4.72;;;3.05;;
7193;SDS011;3638;48.820;9.244;2022-11-15T13:23:53;4.07;;;3.10;;
7193;SDS011;3638;48.820;9.244;2022-11-15T13:26:21;4.32;;;3.45;;
7193;SDS011;3638;48.820;9.244;2022-11-15T13:28:49;4.00;;;3.00;;
7193;SDS011;3638;48.820;9.244;2022-11-15T13:31:30;3.50;;;2.77;;
7193;SDS011;3638;48.820;9.244;2022-11-15T13:34:12;2.95;;;2.72;;
7193;SDS011;3638;48.820;9.244;2022-11-15T13:36:50;4.80;;;2.90;;
7193;SDS011;3638;48.820;9.244;2022-11-15T13:39:25;2.90;;;2.63;;
7193;SDS011;3638;48.820;9.244;2022-11-15T13:41:55;3.37;;;2.90;;
7193;SDS011;3638;48.820;9.244;2022-11-15T13:44:23;5.63;;;3.27;;
7193;SDS011;3638;48.820;9.244;2022-11-15T13:47:02;5.85;;;3.72;;
7193;SDS011;3638;48.820;9.244;2022-11-15T13:49:32;4.68;;;3.65;;
7193;SDS011;3638;48.820;9.244;2022-11-15T13:52:00;5.47;;;3.58;;
7193;SDS011;3638;48.820;9.244;2022-11-15T13:54:33;4.33;;;3.43;;
7193;SDS011;3638;48.820;9.244;2022-11-15T13:57:03;5.23;;;2.90;;
7193;SDS011;3638;48.820;9.244;2022-11-15T13:59:35;3.20;;;2.80;;
7193;SDS011;3638;48.820;9.244;2022-11-15T14:02:11;4.73;;;3.67;;
7193;SDS011;3638;48.820;9.244;2022-11-15T14:04:45;5.00;;;3.20;;
7193;SDS011;3638;48.820;9.244;2022-11-15T14:07:16;5.67;;;3.33;;
7193;SDS011;3638;48.820;9.244;2022-11-15T14:09:47;3.03;;;2.78;;
7193;SDS011;3638;48.820;9.244;2022-11-15T14:12:25;7.00;;;3.13;;
7193;SDS011;3638;48.820;9.244;2022-11-15T14:14:55;5.13;;;3.03;;
7193;SDS011;3638;48.820;9.244;2022-11-15T14:17:33;5.20;;;3.40;;
7193;SDS011;3638;48.820;9.244;2022-11-15T14:20:27;5.97;;;3.10;;
7193;SDS011;3638;48.820;9.244;2022-11-15T14:22:58;3.23;;;3.00;;
7193;SDS011;3638;48.820;9.244;2022-11-15T14:25:28;3.53;;;3.23;;
7193;SDS011;3638;48.820;9.244;2022-11-15T14:28:15;3.70;;;3.20;;
7193;SDS011;3638;48.820;9.244;2022-11-15T14:30:56;3.93;;;3.57;;
7193;SDS011;3638;48.820;9.244;2022-11-15T14:33:27;3.63;;;3.33;;
7193;SDS011;3638;48.820;9.244;2022-11-15T14:35:56;4.70;;;3.70;;
7193;SDS011;3638;48.820;9.244;2022-11-15T14:38:30;4.90;;;3.90;;
7193;SDS011;3638;48.820;9.244;2022-11-15T14:40:58;5.93;;;3.97;;
7193;SDS011;3638;48.820;9.244;2022-11-15T14:43:25;6.63;;;3.70;;
7193;SDS011;3638;48.820;9.244;2022-11-15T14:45:52;6.63;;;4.13;;
7193;SDS011;3638;48.820;9.244;2022-11-15T14:48:20;6.40;;;4.00;;
7193;SDS011;3638;48.820;9.244;2022-11-15T14:50:47;5.63;;;3.73;;
7193;SDS011;3638;48.820;9.244;2022-11-15T14:53:15;4.27;;;3.67;;
7193;SDS011;3638;48.820;9.244;2022-11-15T14:55:44;5.47;;;3.83;;
7193;SDS011;3638;48.820;9.244;2022-11-15T14:58:13;4.60;;;3.80;;
7193;SDS011;3638;48.820;9.244;2022-11-15T15:00:40;4.93;;;3.90;;
7193;SDS011;3638;48.820;9.244;2022-11-15T15:03:08;5.07;;;3.87;;
7193;SDS011;3638;48.820;9.244;2022-11-15T15:05:36;5.37;;;3.77;;
7193;SDS011;3638;48.820;9.244;2022-11-15T15:08:05;4.73;;;4.13;;
7193;SDS011;3638;48.820;9.244;2022-11-15T15:10:33;5.20;;;3.83;;
7193;SDS011;3638;48.820;9.244;2022-11-15T15:13:02;4.43;;;3.97;;
7193;SDS011;3638;48.820;9.244;2022-11-15T15:15:33;4.83;;;3.80;;
7193;SDS011;3638;48.820;9.244;2022-11-15T15:18:02;6.03;;;4.30;;
7193;SDS011;3638;48.820;9.244;2022-11-15T15:20:30;4.80;;;4.30;;
7193;SDS011;3638;48.820;9.244;2022-11-15T15:22:57;5.37;;;4.20;;
7193;SDS011;3638;48.820;9.244;2022-11-15T15:25:26;5.70;;;4.70;;
7193;SDS011;3638;48.820;9.244;2022-11-15T15:27:55;7.00;;;5.03;;
7193;SDS011;3638;48.820;9.244;2022-11-15T15:30:22;7.63;;;6.13;;
7193;SDS011;3638;48.820;9.244;2022-11-15T15:32:51;11.10;;;6.40;;
7193;SDS011;3638;48.820;9.244;2022-11-15T15:35:18;10.27;;;6.67;;
7193;SDS011;3638;48.820;9.244;2022-11-15T15:37:46;8.87;;;6.30;;
7193;SDS011;3638;48.820;9.244;2022-11-15T15:40:15;7.27;;;5.60;;
7193;SDS011;3638;48.820;9.244;2022-11-15T15:42:45;9.83;;;5.83;;
7193;SDS011;3638;48.820;9.244;2022-11-15T15:45:12;10.40;;;6.40;;
7193;SDS011;3638;48.820;9.244;2022-11-15T15:47:41;7.80;;;5.90;;
7193;SDS011;3638;48.820;9.244;2022-11-15T15:50:14;9.30;;;5.93;;
7193;SDS011;3638;48.820;9.244;2022-11-15T15:52:47;8.83;;;6.30;;
7193;SDS011;3638;48.820;9.244;2022-11-15T15:55:14;9.63;;;6.03;;
7193;SDS011;3638;48.820;9.244;2022-11-15T15:57:41;8.40;;;6.40;;
7193;SDS011;3638;48.820;9.244;2022-11-15T16:00:09;12.57;;;6.50;;
7193;SDS011;3638;48.820;9.244;2022-11-15T16:02:37;9.30;;;6.53;;
7193;SDS011;3638;48.820;9.244;2022-11-15T16:05:04;8.23;;;6.07;;
7193;SDS011;3638;48.820;9.244;2022-11-15T16:07:33;9.77;;;7.13;;